sensor_id;sensor_type;location;lat;lon;timestamp;temperature;humidity
48208;DHT22;33997;53.278;9.708;2023-10-09T00:00:33;11.10;88.80
48208;DHT22;33997;53.278;9.708;2023-10-09T00:03:17;11.10;89.20
48208;DHT22;33997;53.278;9.708;2023-10-09T00:05:43;11.10;89.60
48208;DHT22;33997;53.278;9.708;2023-10-09T00:08:17;11.10;89.50
48208;DHT22;33997;53.278;9.708;2023-10-09T00:10:47;11.10;90.80
48208;DHT22;33997;53.278;9.708;2023-10-09T00:13:22;11.10;91.50
48208;DHT22;33997;53.278;9.708;2023-10-09T00:15:56;11.00;91.20
48208;DHT22;33997;53.278;9.708;2023-10-09T00:18:27;11.00;91.90
48208;DHT22;33997;53.278;9.708;2023-10-09T00:20:58;10.90;92.10
48208;DHT22;33997;53.278;9.708;2023-10-09T00:23:36;10.80;92.80
48208;DHT22;33997;53.278;9.708;2023-10-09T00:26:02;10.80;93.40
48208;DHT22;33997;53.278;9.708;2023-10-09T00:28:35;10.70;93.90
48208;DHT22;33997;53.278;9.708;2023-10-09T00:31:00;10.60;94.10
48208;DHT22;33997;53.278;9.708;2023-10-09T00:33:31;10.60;94.40
48208;DHT22;33997;53.278;9.708;2023-10-09T00:36:02;10.60;95.00
48208;DHT22;33997;53.278;9.708;2023-10-09T00:38:34;10.50;95.30
48208;DHT22;33997;53.278;9.708;2023-10-09T00:41:00;10.50;95.40
48208;DHT22;33997;53.278;9.708;2023-10-09T00:43:32;10.50;95.60
48208;DHT22;33997;53.278;9.708;2023-10-09T00:46:01;10.40;96.00
48208;DHT22;33997;53.278;9.708;2023-10-09T00:48:37;10.30;96.20
48208;DHT22;33997;53.278;9.708;2023-10-09T00:51:05;10.30;96.60
48208;DHT22;33997;53.278;9.708;2023-10-09T00:53:43;10.30;96.80
48208;DHT22;33997;53.278;9.708;2023-10-09T00:56:09;10.20;96.90
48208;DHT22;33997;53.278;9.708;2023-10-09T00:58:46;10.20;97.00
48208;DHT22;33997;53.278;9.708;2023-10-09T01:01:14;10.20;97.10
48208;DHT22;33997;53.278;9.708;2023-10-09T01:03:41;10.20;97.20
48208;DHT22;33997;53.278;9.708;2023-10-09T01:06:07;10.10;97.30
48208;DHT22;33997;53.278;9.708;2023-10-09T01:08:35;10.20;97.50
48208;DHT22;33997;53.278;9.708;2023-10-09T01:11:11;10.20;97.60
48208;DHT22;33997;53.278;9.708;2023-10-09T01:13:44;10.10;97.60
48208;DHT22;33997;53.278;9.708;2023-10-09T01:16:20;10.20;97.80
48208;DHT22;33997;53.278;9.708;2023-10-09T01:18:49;10.20;97.90
48208;DHT22;33997;53.278;9.708;2023-10-09T01:21:16;10.20;98.00
48208;DHT22;33997;53.278;9.708;2023-10-09T01:23:43;10.30;98.10
48208;DHT22;33997;53.278;9.708;2023-10-09T01:26:38;10.30;98.20
48208;DHT22;33997;53.278;9.708;2023-10-09T01:29:16;10.30;98.30
48208;DHT22;33997;53.278;9.708;2023-10-09T01:31:47;10.30;98.30
48208;DHT22;33997;53.278;9.708;2023-10-09T01:34:25;10.30;98.30
48208;DHT22;33997;53.278;9.708;2023-10-09T01:37:18;10.20;98.30
48208;DHT22;33997;53.278;9.708;2023-10-09T01:39:53;10.20;98.40
48208;DHT22;33997;53.278;9.708;2023-10-09T01:42:23;10.30;98.50
48208;DHT22;33997;53.278;9.708;2023-10-09T01:44:53;10.20;98.40
48208;DHT22;33997;53.278;9.708;2023-10-09T01:47:19;10.30;98.40
48208;DHT22;33997;53.278;9.708;2023-10-09T01:49:47;10.30;98.40
48208;DHT22;33997;53.278;9.708;2023-10-09T01:52:15;10.20;98.40
48208;DHT22;33997;53.278;9.708;2023-10-09T01:54:42;10.20;98.40
48208;DHT22;33997;53.278;9.708;2023-10-09T01:57:12;10.20;98.50
48208;DHT22;33997;53.278;9.708;2023-10-09T01:59:39;10.20;98.50
48208;DHT22;33997;53.278;9.708;2023-10-09T02:02:12;10.10;98.40
48208;DHT22;33997;53.278;9.708;2023-10-09T02:05:04;10.10;98.50
48208;DHT22;33997;53.278;9.708;2023-10-09T02:07:39;10.20;98.60
48208;DHT22;33997;53.278;9.708;2023-10-09T02:12:51;10.10;98.60
48208;DHT22;33997;53.278;9.708;2023-10-09T02:15:23;10.10;98.60
48208;DHT22;33997;53.278;9.708;2023-10-09T02:18:08;10.10;98.70
48208;DHT22;33997;53.278;9.708;2023-10-09T02:20:44;10.10;98.70
48208;DHT22;33997;53.278;9.708;2023-10-09T02:23:20;10.10;98.70
48208;DHT22;33997;53.278;9.708;2023-10-09T02:25:50;10.10;98.60
48208;DHT22;33997;53.278;9.708;2023-10-09T02:28:18;10.00;98.70
48208;DHT22;33997;53.278;9.708;2023-10-09T02:30:45;10.10;98.60
48208;DHT22;33997;53.278;9.708;2023-10-09T02:33:17;10.00;98.70
48208;DHT22;33997;53.278;9.708;2023-10-09T02:35:56;10.10;98.70
48208;DHT22;33997;53.278;9.708;2023-10-09T02:38:25;10.10;98.80
48208;DHT22;33997;53.278;9.708;2023-10-09T02:40:51;10.10;98.80
48208;DHT22;33997;53.278;9.708;2023-10-09T02:43:31;10.10;98.70
48208;DHT22;33997;53.278;9.708;2023-10-09T02:46:11;10.10;98.70
48208;DHT22;33997;53.278;9.708;2023-10-09T02:48:43;10.00;98.70
48208;DHT22;33997;53.278;9.708;2023-10-09T02:51:11;10.10;98.70
48208;DHT22;33997;53.278;9.708;2023-10-09T02:54:00;10.00;98.80
48208;DHT22;33997;53.278;9.708;2023-10-09T02:56:34;10.00;98.70
48208;DHT22;33997;53.278;9.708;2023-10-09T02:59:06;10.00;98.80
48208;DHT22;33997;53.278;9.708;2023-10-09T03:01:33;10.00;98.80
48208;DHT22;33997;53.278;9.708;2023-10-09T03:04:09;10.00;98.80
48208;DHT22;33997;53.278;9.708;2023-10-09T03:06:43;10.00;98.90
48208;DHT22;33997;53.278;9.708;2023-10-09T03:09:18;10.00;98.80
48208;DHT22;33997;53.278;9.708;2023-10-09T03:11:48;10.00;98.90
48208;DHT22;33997;53.278;9.708;2023-10-09T03:14:22;10.00;98.90
48208;DHT22;33997;53.278;9.708;2023-10-09T03:16:55;10.00;98.90
48208;DHT22;33997;53.278;9.708;2023-10-09T03:19:26;10.00;99.00
48208;DHT22;33997;53.278;9.708;2023-10-09T03:21:52;10.10;99.00
48208;DHT22;33997;53.278;9.708;2023-10-09T03:24:17;10.10;99.10
48208;DHT22;33997;53.278;9.708;2023-10-09T03:26:45;10.10;99.10
48208;DHT22;33997;53.278;9.708;2023-10-09T03:29:10;10.10;99.10
48208;DHT22;33997;53.278;9.708;2023-10-09T03:31:37;10.10;99.20
48208;DHT22;33997;53.278;9.708;2023-10-09T03:34:03;10.10;99.30
48208;DHT22;33997;53.278;9.708;2023-10-09T03:36:29;10.10;99.30
48208;DHT22;33997;53.278;9.708;2023-10-09T03:38:57;10.10;99.20
48208;DHT22;33997;53.278;9.708;2023-10-09T03:41:23;10.10;99.30
48208;DHT22;33997;53.278;9.708;2023-10-09T03:43:52;10.10;99.30
48208;DHT22;33997;53.278;9.708;2023-10-09T03:46:17;10.10;99.30
48208;DHT22;33997;53.278;9.708;2023-10-09T03:48:50;10.10;99.30
48208;DHT22;33997;53.278;9.708;2023-10-09T03:51:17;10.10;99.30
48208;DHT22;33997;53.278;9.708;2023-10-09T03:53:50;10.10;99.20
48208;DHT22;33997;53.278;9.708;2023-10-09T03:56:18;10.10;99.30
48208;DHT22;33997;53.278;9.708;2023-10-09T03:58:45;10.10;99.30
48208;DHT22;33997;53.278;9.708;2023-10-09T04:01:21;10.10;99.20
48208;DHT22;33997;53.278;9.708;2023-10-09T04:03:56;10.10;99.20
48208;DHT22;33997;53.278;9.708;2023-10-09T04:06:26;10.00;99.20
48208;DHT22;33997;53.278;9.708;2023-10-09T04:08:56;10.10;99.20
48208;DHT22;33997;53.278;9.708;2023-10-09T04:11:23;10.10;99.20
48208;DHT22;33997;53.278;9.708;2023-10-09T04:13:50;10.10;99.20
48208;DHT22;33997;53.278;9.708;2023-10-09T04:16:17;10.10;99.00
48208;DHT22;33997;53.278;9.708;2023-10-09T04:18:58;10.10;99.10
48208;DHT22;33997;53.278;9.708;2023-10-09T04:21:33;10.00;99.00
48208;DHT22;33997;53.278;9.708;2023-10-09T04:24:05;10.10;99.10
48208;DHT22;33997;53.278;9.708;2023-10-09T04:26:40;10.00;99.00
48208;DHT22;33997;53.278;9.708;2023-10-09T04:29:11;10.10;99.10
48208;DHT22;33997;53.278;9.708;2023-10-09T04:31:45;10.00;99.10
48208;DHT22;33997;53.278;9.708;2023-10-09T04:34:17;10.00;99.20
48208;DHT22;33997;53.278;9.708;2023-10-09T04:37:02;10.10;99.20
48208;DHT22;33997;53.278;9.708;2023-10-09T04:39:44;10.00;99.20
48208;DHT22;33997;53.278;9.708;2023-10-09T04:42:13;10.00;99.20
48208;DHT22;33997;53.278;9.708;2023-10-09T04:45:02;10.10;99.30
48208;DHT22;33997;53.278;9.708;2023-10-09T04:47:34;10.10;99.20
48208;DHT22;33997;53.278;9.708;2023-10-09T04:50:15;10.00;99.30
48208;DHT22;33997;53.278;9.708;2023-10-09T04:53:01;10.00;99.20
48208;DHT22;33997;53.278;9.708;2023-10-09T04:55:47;9.90;99.20
48208;DHT22;33997;53.278;9.708;2023-10-09T04:58:24;9.80;99.20
48208;DHT22;33997;53.278;9.708;2023-10-09T05:00:52;9.90;99.20
48208;DHT22;33997;53.278;9.708;2023-10-09T05:03:23;9.80;99.30
48208;DHT22;33997;53.278;9.708;2023-10-09T05:06:11;9.90;99.40
48208;DHT22;33997;53.278;9.708;2023-10-09T05:08:48;9.90;99.40
48208;DHT22;33997;53.278;9.708;2023-10-09T05:11:14;9.90;99.40
48208;DHT22;33997;53.278;9.708;2023-10-09T05:13:53;10.00;99.40
48208;DHT22;33997;53.278;9.708;2023-10-09T05:16:37;10.00;99.50
48208;DHT22;33997;53.278;9.708;2023-10-09T05:19:03;10.00;99.50
48208;DHT22;33997;53.278;9.708;2023-10-09T05:21:36;10.00;99.40
48208;DHT22;33997;53.278;9.708;2023-10-09T05:24:11;9.90;99.40
48208;DHT22;33997;53.278;9.708;2023-10-09T05:26:43;10.00;99.50
48208;DHT22;33997;53.278;9.708;2023-10-09T05:29:12;10.00;99.60
48208;DHT22;33997;53.278;9.708;2023-10-09T05:32:03;10.00;99.50
48208;DHT22;33997;53.278;9.708;2023-10-09T05:34:39;10.00;99.60
48208;DHT22;33997;53.278;9.708;2023-10-09T05:37:24;10.00;99.60
48208;DHT22;33997;53.278;9.708;2023-10-09T05:39:51;9.90;99.50
48208;DHT22;33997;53.278;9.708;2023-10-09T05:42:34;10.00;99.60
48208;DHT22;33997;53.278;9.708;2023-10-09T05:45:07;10.00;99.60
48208;DHT22;33997;53.278;9.708;2023-10-09T05:47:52;10.00;99.70
48208;DHT22;33997;53.278;9.708;2023-10-09T05:50:32;10.00;99.70
48208;DHT22;33997;53.278;9.708;2023-10-09T05:53:02;10.00;99.60
48208;DHT22;33997;53.278;9.708;2023-10-09T05:55:29;10.00;99.70
48208;DHT22;33997;53.278;9.708;2023-10-09T05:58:13;10.00;99.60
48208;DHT22;33997;53.278;9.708;2023-10-09T06:00:45;10.00;99.70
48208;DHT22;33997;53.278;9.708;2023-10-09T06:03:29;10.00;99.60
48208;DHT22;33997;53.278;9.708;2023-10-09T06:06:14;10.00;99.70
48208;DHT22;33997;53.278;9.708;2023-10-09T06:09:02;10.00;99.70
48208;DHT22;33997;53.278;9.708;2023-10-09T06:11:49;10.00;99.70
48208;DHT22;33997;53.278;9.708;2023-10-09T06:14:24;10.00;99.80
48208;DHT22;33997;53.278;9.708;2023-10-09T06:16:56;10.00;99.80
48208;DHT22;33997;53.278;9.708;2023-10-09T06:19:22;10.10;99.80
48208;DHT22;33997;53.278;9.708;2023-10-09T06:21:48;10.00;99.80
48208;DHT22;33997;53.278;9.708;2023-10-09T06:24:32;10.10;99.90
48208;DHT22;33997;53.278;9.708;2023-10-09T06:27:08;10.00;99.80
48208;DHT22;33997;53.278;9.708;2023-10-09T06:29:38;10.00;99.80
48208;DHT22;33997;53.278;9.708;2023-10-09T06:32:16;10.10;99.80
48208;DHT22;33997;53.278;9.708;2023-10-09T06:35:00;10.00;99.80
48208;DHT22;33997;53.278;9.708;2023-10-09T06:37:49;10.00;99.90
48208;DHT22;33997;53.278;9.708;2023-10-09T06:43:08;10.10;99.80
48208;DHT22;33997;53.278;9.708;2023-10-09T06:45:42;10.00;99.90
48208;DHT22;33997;53.278;9.708;2023-10-09T06:48:13;10.10;99.90
48208;DHT22;33997;53.278;9.708;2023-10-09T06:50:58;10.10;99.80
48208;DHT22;33997;53.278;9.708;2023-10-09T06:53:39;10.00;99.70
48208;DHT22;33997;53.278;9.708;2023-10-09T06:56:23;10.10;99.90
48208;DHT22;33997;53.278;9.708;2023-10-09T06:59:09;10.10;99.90
48208;DHT22;33997;53.278;9.708;2023-10-09T07:01:48;10.10;99.90
48208;DHT22;33997;53.278;9.708;2023-10-09T07:04:36;10.10;99.90
48208;DHT22;33997;53.278;9.708;2023-10-09T07:07:02;10.10;99.80
48208;DHT22;33997;53.278;9.708;2023-10-09T07:09:33;10.10;99.90
48208;DHT22;33997;53.278;9.708;2023-10-09T07:12:08;10.10;99.90
48208;DHT22;33997;53.278;9.708;2023-10-09T07:14:51;10.10;99.90
48208;DHT22;33997;53.278;9.708;2023-10-09T07:17:26;10.10;99.80
48208;DHT22;33997;53.278;9.708;2023-10-09T07:20:10;10.10;99.90
48208;DHT22;33997;53.278;9.708;2023-10-09T07:22:36;10.10;99.90
48208;DHT22;33997;53.278;9.708;2023-10-09T07:25:05;10.20;99.90
48208;DHT22;33997;53.278;9.708;2023-10-09T07:27:41;10.10;99.90
48208;DHT22;33997;53.278;9.708;2023-10-09T07:30:15;10.10;99.90
48208;DHT22;33997;53.278;9.708;2023-10-09T07:33:03;10.10;99.90
48208;DHT22;33997;53.278;9.708;2023-10-09T07:35:32;10.10;99.90
48208;DHT22;33997;53.278;9.708;2023-10-09T07:38:23;10.10;99.90
48208;DHT22;33997;53.278;9.708;2023-10-09T07:40:54;10.20;99.90
48208;DHT22;33997;53.278;9.708;2023-10-09T07:43:35;10.30;99.90
48208;DHT22;33997;53.278;9.708;2023-10-09T07:46:05;10.30;99.90
48208;DHT22;33997;53.278;9.708;2023-10-09T07:48:31;10.30;99.90
48208;DHT22;33997;53.278;9.708;2023-10-09T07:51:17;10.40;99.90
48208;DHT22;33997;53.278;9.708;2023-10-09T07:53:45;10.40;99.90
48208;DHT22;33997;53.278;9.708;2023-10-09T07:56:13;10.30;99.90
48208;DHT22;33997;53.278;9.708;2023-10-09T07:58:46;10.40;99.90
48208;DHT22;33997;53.278;9.708;2023-10-09T08:01:15;10.40;99.90
48208;DHT22;33997;53.278;9.708;2023-10-09T08:03:48;10.40;99.90
48208;DHT22;33997;53.278;9.708;2023-10-09T08:06:24;10.50;99.90
48208;DHT22;33997;53.278;9.708;2023-10-09T08:09:09;10.50;99.90
48208;DHT22;33997;53.278;9.708;2023-10-09T08:11:37;10.50;99.90
48208;DHT22;33997;53.278;9.708;2023-10-09T08:14:09;10.50;99.90
48208;DHT22;33997;53.278;9.708;2023-10-09T08:16:54;10.50;99.90
48208;DHT22;33997;53.278;9.708;2023-10-09T08:19:39;10.60;99.90
48208;DHT22;33997;53.278;9.708;2023-10-09T08:22:28;10.60;99.90
48208;DHT22;33997;53.278;9.708;2023-10-09T08:24:54;10.60;99.90
48208;DHT22;33997;53.278;9.708;2023-10-09T08:27:26;10.50;99.90
48208;DHT22;33997;53.278;9.708;2023-10-09T08:30:01;10.50;99.90
48208;DHT22;33997;53.278;9.708;2023-10-09T08:32:51;10.50;99.90
48208;DHT22;33997;53.278;9.708;2023-10-09T08:35:34;10.50;99.90
48208;DHT22;33997;53.278;9.708;2023-10-09T08:38:11;10.60;99.90
48208;DHT22;33997;53.278;9.708;2023-10-09T08:40:38;10.60;99.90
48208;DHT22;33997;53.278;9.708;2023-10-09T08:43:15;10.50;99.90
48208;DHT22;33997;53.278;9.708;2023-10-09T08:45:45;10.60;99.90
48208;DHT22;33997;53.278;9.708;2023-10-09T08:48:12;10.60;99.90
48208;DHT22;33997;53.278;9.708;2023-10-09T08:50:41;10.60;99.90
48208;DHT22;33997;53.278;9.708;2023-10-09T08:53:08;10.60;99.90
48208;DHT22;33997;53.278;9.708;2023-10-09T08:55:36;10.70;99.90
48208;DHT22;33997;53.278;9.708;2023-10-09T08:58:04;10.70;99.90
48208;DHT22;33997;53.278;9.708;2023-10-09T09:00:38;10.70;99.90
48208;DHT22;33997;53.278;9.708;2023-10-09T09:03:04;10.70;99.90
48208;DHT22;33997;53.278;9.708;2023-10-09T09:05:31;10.80;99.90
48208;DHT22;33997;53.278;9.708;2023-10-09T09:08:01;10.80;99.90
48208;DHT22;33997;53.278;9.708;2023-10-09T09:10:31;10.90;99.90
48208;DHT22;33997;53.278;9.708;2023-10-09T09:13:14;10.90;99.90
48208;DHT22;33997;53.278;9.708;2023-10-09T09:15:46;11.00;99.90
48208;DHT22;33997;53.278;9.708;2023-10-09T09:18:12;11.00;99.90
48208;DHT22;33997;53.278;9.708;2023-10-09T09:20:43;11.10;99.90
48208;DHT22;33997;53.278;9.708;2023-10-09T09:23:12;11.10;99.90
48208;DHT22;33997;53.278;9.708;2023-10-09T09:25:45;11.20;99.90
48208;DHT22;33997;53.278;9.708;2023-10-09T09:28:13;11.20;99.90
48208;DHT22;33997;53.278;9.708;2023-10-09T09:30:45;11.20;99.90
48208;DHT22;33997;53.278;9.708;2023-10-09T09:33:25;11.20;99.90
48208;DHT22;33997;53.278;9.708;2023-10-09T09:36:06;11.40;99.90
48208;DHT22;33997;53.278;9.708;2023-10-09T09:38:33;11.40;99.90
48208;DHT22;33997;53.278;9.708;2023-10-09T09:41:15;11.40;99.90
48208;DHT22;33997;53.278;9.708;2023-10-09T09:43:56;11.40;99.90
48208;DHT22;33997;53.278;9.708;2023-10-09T09:46:23;11.50;99.90
48208;DHT22;33997;53.278;9.708;2023-10-09T09:49:04;11.60;99.90
48208;DHT22;33997;53.278;9.708;2023-10-09T09:51:31;11.80;99.90
48208;DHT22;33997;53.278;9.708;2023-10-09T09:53:56;11.70;99.90
48208;DHT22;33997;53.278;9.708;2023-10-09T09:56:25;11.80;99.90
48208;DHT22;33997;53.278;9.708;2023-10-09T09:58:51;11.80;99.90
48208;DHT22;33997;53.278;9.708;2023-10-09T10:01:25;11.90;99.90
48208;DHT22;33997;53.278;9.708;2023-10-09T10:03:56;11.90;99.90
48208;DHT22;33997;53.278;9.708;2023-10-09T10:06:25;11.90;99.90
48208;DHT22;33997;53.278;9.708;2023-10-09T10:08:53;11.90;99.90
48208;DHT22;33997;53.278;9.708;2023-10-09T10:14:07;12.10;99.90
48208;DHT22;33997;53.278;9.708;2023-10-09T10:17:06;12.10;99.90
48208;DHT22;33997;53.278;9.708;2023-10-09T10:22:29;12.30;99.90
48208;DHT22;33997;53.278;9.708;2023-10-09T10:24:58;12.50;99.90
48208;DHT22;33997;53.278;9.708;2023-10-09T10:27:28;12.60;99.90
48208;DHT22;33997;53.278;9.708;2023-10-09T10:35:17;12.90;99.90
48208;DHT22;33997;53.278;9.708;2023-10-09T10:37:46;12.90;99.90
48208;DHT22;33997;53.278;9.708;2023-10-09T10:40:26;12.90;99.90
48208;DHT22;33997;53.278;9.708;2023-10-09T10:43:06;13.00;99.90
48208;DHT22;33997;53.278;9.708;2023-10-09T10:45:36;13.10;99.90
48208;DHT22;33997;53.278;9.708;2023-10-09T10:48:04;13.10;99.90
48208;DHT22;33997;53.278;9.708;2023-10-09T10:50:34;13.10;99.90
48208;DHT22;33997;53.278;9.708;2023-10-09T10:53:13;13.10;99.90
48208;DHT22;33997;53.278;9.708;2023-10-09T10:55:53;13.30;99.90
48208;DHT22;33997;53.278;9.708;2023-10-09T10:58:21;13.40;99.90
48208;DHT22;33997;53.278;9.708;2023-10-09T11:00:56;13.50;99.90
48208;DHT22;33997;53.278;9.708;2023-10-09T11:03:22;13.60;99.90
48208;DHT22;33997;53.278;9.708;2023-10-09T11:06:01;13.70;99.90
48208;DHT22;33997;53.278;9.708;2023-10-09T11:08:49;13.80;99.90
48208;DHT22;33997;53.278;9.708;2023-10-09T11:11:22;13.90;99.90
48208;DHT22;33997;53.278;9.708;2023-10-09T11:13:48;14.00;99.90
48208;DHT22;33997;53.278;9.708;2023-10-09T11:16:23;14.10;99.90
48208;DHT22;33997;53.278;9.708;2023-10-09T11:19:18;14.20;99.90
48208;DHT22;33997;53.278;9.708;2023-10-09T11:21:58;14.30;99.90
48208;DHT22;33997;53.278;9.708;2023-10-09T11:24:50;14.40;99.90
48208;DHT22;33997;53.278;9.708;2023-10-09T11:27:36;14.40;99.90
48208;DHT22;33997;53.278;9.708;2023-10-09T11:30:05;14.50;99.90
48208;DHT22;33997;53.278;9.708;2023-10-09T11:32:46;14.50;99.90
48208;DHT22;33997;53.278;9.708;2023-10-09T11:35:15;14.50;99.90
48208;DHT22;33997;53.278;9.708;2023-10-09T11:37:59;14.50;99.90
48208;DHT22;33997;53.278;9.708;2023-10-09T11:43:00;14.60;99.90
48208;DHT22;33997;53.278;9.708;2023-10-09T11:45:27;14.70;99.90
48208;DHT22;33997;53.278;9.708;2023-10-09T11:48:16;14.80;99.90
48208;DHT22;33997;53.278;9.708;2023-10-09T11:50:59;14.90;99.90
48208;DHT22;33997;53.278;9.708;2023-10-09T11:53:27;15.00;99.90
48208;DHT22;33997;53.278;9.708;2023-10-09T11:55:53;15.00;99.90
48208;DHT22;33997;53.278;9.708;2023-10-09T11:58:19;15.00;99.90
48208;DHT22;33997;53.278;9.708;2023-10-09T12:00:50;15.10;99.90
48208;DHT22;33997;53.278;9.708;2023-10-09T12:03:17;15.10;99.90
48208;DHT22;33997;53.278;9.708;2023-10-09T12:05:42;15.10;99.90
48208;DHT22;33997;53.278;9.708;2023-10-09T12:08:10;15.10;99.90
48208;DHT22;33997;53.278;9.708;2023-10-09T12:10:36;15.20;99.90
48208;DHT22;33997;53.278;9.708;2023-10-09T12:13:05;15.30;99.90
48208;DHT22;33997;53.278;9.708;2023-10-09T12:15:31;15.20;99.90
48208;DHT22;33997;53.278;9.708;2023-10-09T12:18:07;15.30;99.90
48208;DHT22;33997;53.278;9.708;2023-10-09T12:20:41;15.30;99.90
48208;DHT22;33997;53.278;9.708;2023-10-09T12:23:06;15.30;99.90
48208;DHT22;33997;53.278;9.708;2023-10-09T12:25:33;15.30;99.90
48208;DHT22;33997;53.278;9.708;2023-10-09T12:28:01;15.40;99.90
48208;DHT22;33997;53.278;9.708;2023-10-09T12:30:28;15.40;99.90
48208;DHT22;33997;53.278;9.708;2023-10-09T12:32:55;15.40;99.90
48208;DHT22;33997;53.278;9.708;2023-10-09T12:35:23;15.40;99.90
48208;DHT22;33997;53.278;9.708;2023-10-09T12:37:53;15.50;99.90
48208;DHT22;33997;53.278;9.708;2023-10-09T12:40:22;15.50;99.90
48208;DHT22;33997;53.278;9.708;2023-10-09T12:42:54;15.50;99.90
48208;DHT22;33997;53.278;9.708;2023-10-09T12:45:21;15.50;99.90
48208;DHT22;33997;53.278;9.708;2023-10-09T12:48:00;15.60;99.90
48208;DHT22;33997;53.278;9.708;2023-10-09T12:50:33;15.60;99.90
48208;DHT22;33997;53.278;9.708;2023-10-09T12:52:59;15.60;99.90
48208;DHT22;33997;53.278;9.708;2023-10-09T12:55:30;15.70;99.90
48208;DHT22;33997;53.278;9.708;2023-10-09T12:58:01;15.70;99.90
48208;DHT22;33997;53.278;9.708;2023-10-09T13:00:34;15.80;99.90
48208;DHT22;33997;53.278;9.708;2023-10-09T13:03:04;15.80;99.90
48208;DHT22;33997;53.278;9.708;2023-10-09T13:05:39;15.80;99.90
48208;DHT22;33997;53.278;9.708;2023-10-09T13:08:20;15.70;99.90
48208;DHT22;33997;53.278;9.708;2023-10-09T13:10:48;15.80;99.90
48208;DHT22;33997;53.278;9.708;2023-10-09T13:13:20;15.70;99.90
48208;DHT22;33997;53.278;9.708;2023-10-09T13:15:46;15.80;99.90
48208;DHT22;33997;53.278;9.708;2023-10-09T13:18:11;15.70;99.90
48208;DHT22;33997;53.278;9.708;2023-10-09T13:20:37;15.70;99.90
48208;DHT22;33997;53.278;9.708;2023-10-09T13:23:03;15.70;99.90
48208;DHT22;33997;53.278;9.708;2023-10-09T13:25:28;15.60;99.90
48208;DHT22;33997;53.278;9.708;2023-10-09T13:28:05;15.60;99.90
48208;DHT22;33997;53.278;9.708;2023-10-09T13:30:30;15.60;99.90
48208;DHT22;33997;53.278;9.708;2023-10-09T13:33:04;15.60;99.90
48208;DHT22;33997;53.278;9.708;2023-10-09T13:35:30;15.60;99.90
48208;DHT22;33997;53.278;9.708;2023-10-09T13:38:03;15.60;99.90
48208;DHT22;33997;53.278;9.708;2023-10-09T13:40:33;15.60;99.90
48208;DHT22;33997;53.278;9.708;2023-10-09T13:43:00;15.60;99.90
48208;DHT22;33997;53.278;9.708;2023-10-09T13:45:27;15.60;99.90
48208;DHT22;33997;53.278;9.708;2023-10-09T13:47:54;15.60;99.90
48208;DHT22;33997;53.278;9.708;2023-10-09T13:50:20;15.60;99.90
48208;DHT22;33997;53.278;9.708;2023-10-09T13:52:47;15.60;99.90
48208;DHT22;33997;53.278;9.708;2023-10-09T13:55:13;15.60;99.90
48208;DHT22;33997;53.278;9.708;2023-10-09T13:57:43;15.50;99.90
48208;DHT22;33997;53.278;9.708;2023-10-09T14:00:14;15.50;99.90
48208;DHT22;33997;53.278;9.708;2023-10-09T14:02:58;15.60;99.90
48208;DHT22;33997;53.278;9.708;2023-10-09T14:05:29;15.60;99.90
48208;DHT22;33997;53.278;9.708;2023-10-09T14:07:54;15.50;99.90
48208;DHT22;33997;53.278;9.708;2023-10-09T14:10:22;15.50;99.90
48208;DHT22;33997;53.278;9.708;2023-10-09T14:12:52;15.50;99.90
48208;DHT22;33997;53.278;9.708;2023-10-09T14:15:19;15.50;99.90
48208;DHT22;33997;53.278;9.708;2023-10-09T14:17:45;15.50;99.90
48208;DHT22;33997;53.278;9.708;2023-10-09T14:20:12;15.50;99.90
48208;DHT22;33997;53.278;9.708;2023-10-09T14:23:00;15.50;99.90
48208;DHT22;33997;53.278;9.708;2023-10-09T14:25:33;15.50;99.90
48208;DHT22;33997;53.278;9.708;2023-10-09T14:27:58;15.60;99.90
48208;DHT22;33997;53.278;9.708;2023-10-09T14:30:24;15.80;99.90
48208;DHT22;33997;53.278;9.708;2023-10-09T14:32:58;16.00;99.90
48208;DHT22;33997;53.278;9.708;2023-10-09T14:35:24;16.00;99.90
48208;DHT22;33997;53.278;9.708;2023-10-09T14:37:55;16.30;99.90
48208;DHT22;33997;53.278;9.708;2023-10-09T14:40:21;16.40;99.90
48208;DHT22;33997;53.278;9.708;2023-10-09T14:42:55;16.40;99.90
48208;DHT22;33997;53.278;9.708;2023-10-09T14:45:26;16.70;99.70
48208;DHT22;33997;53.278;9.708;2023-10-09T14:47:52;16.50;98.90
48208;DHT22;33997;53.278;9.708;2023-10-09T14:50:20;16.50;99.00
48208;DHT22;33997;53.278;9.708;2023-10-09T14:52:48;16.40;99.10
48208;DHT22;33997;53.278;9.708;2023-10-09T14:55:13;16.30;99.00
48208;DHT22;33997;53.278;9.708;2023-10-09T14:57:45;16.20;99.10
48208;DHT22;33997;53.278;9.708;2023-10-09T15:00:11;16.00;99.00
48208;DHT22;33997;53.278;9.708;2023-10-09T15:02:39;16.00;99.20
48208;DHT22;33997;53.278;9.708;2023-10-09T15:05:05;15.90;99.30
48208;DHT22;33997;53.278;9.708;2023-10-09T15:07:35;15.80;99.10
48208;DHT22;33997;53.278;9.708;2023-10-09T15:10:04;15.70;99.40
48208;DHT22;33997;53.278;9.708;2023-10-09T15:12:30;15.70;99.30
48208;DHT22;33997;53.278;9.708;2023-10-09T15:14:56;15.70;99.30
48208;DHT22;33997;53.278;9.708;2023-10-09T15:17:23;15.70;99.40
48208;DHT22;33997;53.278;9.708;2023-10-09T15:19:49;15.70;99.40
48208;DHT22;33997;53.278;9.708;2023-10-09T15:22:20;15.90;99.40
48208;DHT22;33997;53.278;9.708;2023-10-09T15:24:46;16.60;99.10
48208;DHT22;33997;53.278;9.708;2023-10-09T15:27:12;17.10;97.90
48208;DHT22;33997;53.278;9.708;2023-10-09T15:29:38;17.30;96.10
48208;DHT22;33997;53.278;9.708;2023-10-09T15:32:09;17.30;95.30
48208;DHT22;33997;53.278;9.708;2023-10-09T15:34:40;17.00;95.20
48208;DHT22;33997;53.278;9.708;2023-10-09T15:37:06;16.60;96.20
48208;DHT22;33997;53.278;9.708;2023-10-09T15:39:37;16.40;96.60
48208;DHT22;33997;53.278;9.708;2023-10-09T15:42:03;16.20;97.20
48208;DHT22;33997;53.278;9.708;2023-10-09T15:44:38;15.90;97.40
48208;DHT22;33997;53.278;9.708;2023-10-09T15:47:05;15.70;97.70
48208;DHT22;33997;53.278;9.708;2023-10-09T15:49:34;15.60;97.90
48208;DHT22;33997;53.278;9.708;2023-10-09T15:52:00;15.50;98.10
48208;DHT22;33997;53.278;9.708;2023-10-09T15:54:28;15.50;98.50
48208;DHT22;33997;53.278;9.708;2023-10-09T15:56:55;15.40;98.60
48208;DHT22;33997;53.278;9.708;2023-10-09T15:59:22;15.30;98.80
48208;DHT22;33997;53.278;9.708;2023-10-09T16:01:49;15.30;99.10
48208;DHT22;33997;53.278;9.708;2023-10-09T16:04:16;15.20;99.20
48208;DHT22;33997;53.278;9.708;2023-10-09T16:06:42;15.20;99.30
48208;DHT22;33997;53.278;9.708;2023-10-09T16:09:08;15.10;99.50
48208;DHT22;33997;53.278;9.708;2023-10-09T16:11:37;15.10;99.70
48208;DHT22;33997;53.278;9.708;2023-10-09T16:14:05;15.00;99.70
48208;DHT22;33997;53.278;9.708;2023-10-09T16:16:35;15.00;99.90
48208;DHT22;33997;53.278;9.708;2023-10-09T16:19:07;15.00;99.90
48208;DHT22;33997;53.278;9.708;2023-10-09T16:21:34;14.90;99.90